• Join FlightAware (Why Join?)
  • Login
  • US Flag 
02:33PM EDT


 

Airport Tracker/Info


-or-


 

Live Flight TrackerFlight Track Log ✈ UAL4234 ✈ 11-Apr-2013 ✈ KROC - KIAD

Flight Track Log - Related Links

Times and Time Zones

All times are in EDT time to prevent confusion due to time zone crossing. See the UAL4234 flight status page for this flight to view local times or setup timezone preferences in your user account.

Time Position Orientation Groundspeed Altitude Reporting Facility
EDT Latitude Longitude Course Direction KTS MPH feet Rate Location/Type
10:29PM 43.1239 -77.6761 North 149 171 1,200  Level Cleveland Center
10:29PM 43.1511 -77.6747 North 173 199 2,600 2,580 Climbing Cleveland Center
10:31PM 43.1614 -77.7597 279° West 225 259 6,500 2,760 Climbing Cleveland Center
10:32PM 43.0975 -77.7856 196° South 180 207 9,300 2,700 Climbing Cleveland Center
10:33PM 43.0200 -77.7692 171° South 221 254 12,000 2,700 Climbing Cleveland Center
10:34PM 42.9403 -77.7528 171° South 253 291 14,800 2,520 Climbing Cleveland Center
10:35PM 42.8608 -77.7394 173° South 284 327 17,100 1,740 Climbing Cleveland Center
10:36PM 42.7714 -77.7492 185° South 306 352 18,300 1,440 Climbing Cleveland Center
10:37PM 42.6886 -77.7725 192° South 332 382 20,000 1,920 Climbing Cleveland Center
10:38PM 42.5811 -77.8028 192° South 339 390 22,200 1,920 Climbing Cleveland Center
10:39PM 42.4814 -77.8242 189° South 354 407 23,900 1,680 Climbing Cleveland Center
10:40PM 42.3819 -77.8508 191° South 359 413 25,600 1,500 Climbing Cleveland Center
10:41PM 42.2806 -77.8778 191° South 371 427 27,000 660 Climbing Cleveland Center
10:42PM 42.1728 -77.9047 190° South 383 441 27,000  Level Cleveland Center
10:43PM 42.0586 -77.9347 191° South 403 464 27,000  Level Cleveland Center
10:44PM 41.9406 -77.9647 191° South 422 486 27,000  Level Cleveland Center
10:45PM 41.8286 -77.9917 190° South 446 513 27,000  Level Cleveland Center
10:46PM 41.7083 -78.0214 190° South 446 513 27,000  Level Cleveland Center
10:47PM 41.5881 -78.0511 190° South 446 513 27,000  Level Cleveland Center
10:48PM 41.4658 -78.0808 190° South 446 513 27,000  Level Cleveland Center
10:49PM 41.3192 -78.1167 190° South 442 509 27,000  Level New York Center
10:50PM 41.1953 -78.1308 185° South 448 516 27,000  Level New York Center
10:51PM 41.0719 -78.0708 160° South 448 516 27,000  Level New York Center
10:52PM 40.9506 -78.0108 160° South 458 527 27,000 -120 Level New York Center
10:53PM 40.8397 -77.9142 147° Southeast 463 533 26,800 -1,260 Descending New York Center
10:54PM 40.7256 -77.8364 153° Southeast 468 539 24,500 -2,220 Descending New York Center
10:55PM 40.6169 -77.7706 155° Southeast 456 525 22,400 -2,040 Descending New York Center
10:56PM 40.5119 -77.7108 157° South 438 504 20,500 -1,740 Descending New York Center
10:57PM 40.4072 -77.6483 156° South 424 488 19,000 -1,320 Descending New York Center
10:58PM 40.3206 -77.5964 155° Southeast 399 459 18,000 -1,140 Descending New York Center
10:59PM 40.2117 -77.5311 155° Southeast 392 451 16,800 -960 Descending New York Center
11:00PM 40.1231 -77.4792 156° South 392 451 16,100 -600 Descending New York Center
11:01PM 40.0175 -77.4256 159° South 386 444 15,600 -1,260 Descending New York Center
11:02PM 39.9250 -77.4033 170° South 376 433 13,600 -1,920 Descending New York Center
11:03PM 39.7667 -77.3667 170° South 349 402 10,900 -1,500 Descending Potomac TRACON
11:04PM 39.6833 -77.3500 171° South 339 390 10,000 -480 Descending Potomac TRACON
11:05PM 39.6000 -77.3500 180° South 299 344 10,000 -720 Level Potomac TRACON
11:06PM 39.5333 -77.3833 201° Southwest 247 284 8,600 -1,560 Descending Potomac TRACON
11:08PM 39.4500 -77.4167 197° South 242 278 6,600 -1,860 Descending Potomac TRACON
11:09PM 39.3833 -77.4500 201° Southwest 237 273 4,800 -1,740 Descending Potomac TRACON
11:09PM 39.3333 -77.4500 180° South 233 268 3,300 -960 Descending Potomac TRACON
11:10PM 39.2667 -77.4500 180° South 224 258 3,000 -180 Descending Potomac TRACON
11:11PM 39.2167 -77.4500 180° South 234 269 3,000  Level Potomac TRACON
11:12PM 39.1500 -77.4500 180° South 207 238 3,000  Level Potomac TRACON
11:14PM 39.1167 -77.4500 180° South 112 129 3,000 -360 Level Potomac TRACON
11:15PM 39.0667 -77.4500 180° South 123 142 2,300 -720 Descending Potomac TRACON